Time;durP1;ratioP1;P1;durP2;ratioP2;P2;SDS_P1;SDS_P2;PMS_P1;PMS_P2;Temp;Humidity;BMP_temperature;BMP_pressure;BME280_temperature;BME280_humidity;BME280_pressure;Samples;Min_cycle;Max_cycle;Signal;HPM_P1;HPM_P2
2023/01/10 00:00:53;;;;;;;5.93;3.22;;;6.90;99.90;;;;;;6222060;23;20203;-86
2023/01/10 00:03:20;;;;;;;5.75;2.75;;;6.90;99.90;;;;;;6219880;23;20171;-85
2023/01/10 00:05:48;;;;;;;4.53;2.45;;;6.90;99.90;;;;;;6221470;23;20255;-85
2023/01/10 00:08:17;;;;;;;4.25;3.53;;;6.90;99.90;;;;;;6225174;23;20195;-85
2023/01/10 00:10:43;;;;;;;2.53;2.28;;;6.90;99.90;;;;;;6224632;23;20282;-85
2023/01/10 00:13:23;;;;;;;3.05;2.08;;;6.80;99.90;;;;;;6221507;23;20182;-85
2023/01/10 00:15:50;;;;;;;3.08;2.78;;;6.80;1.00;;;;;;6220078;23;20269;-85
2023/01/10 00:18:17;;;;;;;3.85;3.10;;;7.10;1.00;;;;;;6218969;23;20200;-85
2023/01/10 00:20:45;;;;;;;3.47;2.97;;;6.80;1.00;;;;;;6218952;23;20186;-84
2023/01/10 00:23:14;;;;;;;3.60;3.30;;;6.80;1.00;;;;;;6218578;23;20198;-85
2023/01/10 00:25:41;;;;;;;3.92;3.25;;;6.80;1.00;;;;;;6218668;23;20230;-86
2023/01/10 00:28:18;;;;;;;3.00;2.50;;;6.80;1.00;;;;;;6218503;23;20203;-85
2023/01/10 00:30:48;;;;;;;4.72;3.83;;;6.80;1.00;;;;;;6229467;23;20165;-85
2023/01/10 00:33:19;;;;;;;6.25;3.28;;;6.80;1.00;;;;;;6234590;23;20179;-85
2023/01/10 00:35:46;;;;;;;4.60;3.20;;;6.80;1.00;;;;;;6234258;23;20160;-85
2023/01/10 00:38:15;;;;;;;3.55;2.53;;;6.90;1.00;;;;;;6236233;23;20226;-85
2023/01/10 00:40:42;;;;;;;5.25;3.45;;;6.70;1.00;;;;;;6235410;23;20179;-85
2023/01/10 00:45:53;;;;;;;4.45;2.83;;;6.80;1.00;;;;;;6230604;23;20179;-85
2023/01/10 00:48:20;;;;;;;2.53;2.33;;;6.80;1.00;;;;;;6227219;23;20222;-84
2023/01/10 00:50:47;;;;;;;3.58;2.90;;;6.80;1.00;;;;;;6227398;23;20203;-85
2023/01/10 00:53:15;;;;;;;5.50;3.03;;;6.90;99.90;;;;;;6225109;23;20254;-85
2023/01/10 00:55:42;;;;;;;3.38;2.40;;;6.90;99.90;;;;;;6219795;23;20180;-85
2023/01/10 00:58:10;;;;;;;2.75;2.55;;;7.00;99.90;;;;;;6218194;23;20254;-84
2023/01/10 01:00:37;;;;;;;3.75;3.17;;;6.90;99.90;;;;;;6219297;23;20203;-85
2023/01/10 01:03:06;;;;;;;3.40;3.10;;;6.90;99.90;;;;;;6232866;23;20226;-85
2023/01/10 01:05:33;;;;;;;4.25;2.92;;;6.90;99.90;;;;;;6242390;23;20166;-85
2023/01/10 01:08:00;;;;;;;5.03;3.80;;;7.00;99.90;;;;;;6234299;23;20199;-85
2023/01/10 01:10:28;;;;;;;10.93;6.70;;;7.00;99.90;;;;;;6235220;23;20207;-85
2023/01/10 01:12:57;;;;;;;4.43;3.15;;;7.00;99.90;;;;;;6231937;23;20179;-85
2023/01/10 01:15:24;;;;;;;5.88;3.15;;;7.00;99.90;;;;;;6232651;23;20195;-84
2023/01/10 01:17:51;;;;;;;2.88;2.55;;;7.30;1.00;;;;;;6229575;23;20179;-85
2023/01/10 01:20:18;;;;;;;3.97;3.03;;;7.00;99.90;;;;;;6229712;23;20214;-85
2023/01/10 01:22:46;;;;;;;4.18;3.03;;;7.00;99.90;;;;;;6232325;23;20167;-85
2023/01/10 01:25:13;;;;;;;3.40;3.10;;;7.00;99.90;;;;;;6230958;23;20176;-85
2023/01/10 01:27:41;;;;;;;3.90;3.33;;;7.20;1.00;;;;;;6229378;23;20258;-84
2023/01/10 01:30:10;;;;;;;4.57;2.80;;;7.00;99.90;;;;;;6219261;23;20189;-86
2023/01/10 01:32:36;;;;;;;3.05;2.75;;;7.00;99.90;;;;;;6217922;23;20670;-85
2023/01/10 01:35:04;;;;;;;3.42;2.88;;;7.00;99.90;;;;;;6218374;23;20195;-85
2023/01/10 01:37:32;;;;;;;5.72;2.33;;;6.80;1.00;;;;;;6217529;23;20185;-84
2023/01/10 01:39:59;;;;;;;4.28;3.13;;;6.80;99.90;;;;;;6218028;23;20245;-85
2023/01/10 01:42:28;;;;;;;5.00;3.90;;;6.80;99.90;;;;;;6218031;23;20176;-86
2023/01/10 01:45:32;;;;;;;4.35;3.05;;;6.80;1.00;;;;;;6217697;23;20186;-86
2023/01/10 01:48:05;;;;;;;4.20;3.70;;;6.70;1.00;;;;;;6103291;23;20248;-85
2023/01/10 01:50:36;;;;;;;3.95;3.55;;;6.80;1.00;;;;;;6207913;23;20655;-85
2023/01/10 01:53:09;;;;;;;3.55;3.25;;;6.70;1.00;;;;;;6222044;23;20246;-85
2023/01/10 01:55:37;;;;;;;4.55;3.30;;;6.60;1.00;;;;;;6220827;23;20206;-85
2023/01/10 01:58:09;;;;;;;5.72;3.70;;;6.70;1.00;;;;;;6219818;23;20301;-83
2023/01/10 02:00:37;;;;;;;3.92;2.97;;;6.70;1.00;;;;;;6229389;23;20196;-84
2023/01/10 02:03:06;;;;;;;3.45;3.13;;;6.60;1.00;;;;;;6238753;23;20214;-84
2023/01/10 02:05:36;;;;;;;4.35;3.83;;;6.60;1.00;;;;;;6230690;23;20207;-84
2023/01/10 02:08:03;;;;;;;4.00;3.63;;;6.50;1.00;;;;;;6223460;23;20195;-83
2023/01/10 02:10:36;;;;;;;5.38;3.30;;;6.50;1.00;;;;;;6223773;23;20213;-84
2023/01/10 02:13:07;;;;;;;5.20;3.25;;;6.50;1.00;;;;;;6221276;23;20496;-85
2023/01/10 02:15:34;;;;;;;3.05;2.78;;;6.10;1.00;;;;;;6233423;23;20183;-84
2023/01/10 02:18:04;;;;;;;3.97;3.55;;;6.40;1.00;;;;;;6241134;22;20214;-83
2023/01/10 02:20:38;;;;;;;3.67;3.05;;;6.70;1.00;;;;;;6220383;23;20182;-83
2023/01/10 02:23:43;;;;;;;4.07;3.65;;;6.30;1.00;;;;;;6221059;23;20250;-83
2023/01/10 02:26:50;;;;;;;4.18;3.55;;;6.40;1.00;;;;;;6167801;23;20235;-84
2023/01/10 02:30:06;;;;;;;5.22;3.20;;;6.40;1.00;;;;;;6233223;23;20207;-83
2023/01/10 02:32:43;;;;;;;5.13;3.35;;;6.50;1.00;;;;;;6183540;23;20261;-84
2023/01/10 02:35:23;;;;;;;3.67;2.72;;;6.50;1.00;;;;;;6234492;23;20243;-83
2023/01/10 02:37:59;;;;;;;9.48;3.17;;;6.40;1.00;;;;;;6231902;23;20163;-83
2023/01/10 02:40:32;;;;;;;3.90;3.15;;;6.50;1.00;;;;;;6225466;23;20159;-84
2023/01/10 02:43:05;;;;;;;5.78;3.15;;;6.60;1.00;;;;;;6227357;23;20261;-84
2023/01/10 02:45:38;;;;;;;3.00;2.70;;;6.50;1.00;;;;;;6226471;23;20187;-85
2023/01/10 02:48:07;;;;;;;2.33;2.20;;;6.60;1.00;;;;;;6226131;23;20203;-83
2023/01/10 02:50:50;;;;;;;4.57;2.85;;;6.60;1.00;;;;;;6226885;23;20261;-84
2023/01/10 02:53:22;;;;;;;3.03;2.60;;;6.60;1.00;;;;;;6225407;23;20163;-84
2023/01/10 02:56:05;;;;;;;3.40;3.13;;;6.70;1.00;;;;;;6224312;23;20573;-84
2023/01/10 02:58:49;;;;;;;3.22;2.78;;;6.60;1.00;;;;;;6244274;22;20186;-83
2023/01/10 03:01:23;;;;;;;5.70;2.47;;;6.60;1.00;;;;;;6244270;22;20208;-82
2023/01/10 03:04:01;;;;;;;4.93;3.22;;;6.60;1.00;;;;;;6243678;22;20152;-82
2023/01/10 03:06:39;;;;;;;5.85;3.08;;;6.60;1.00;;;;;;6219332;23;20163;-84
2023/01/10 03:09:12;;;;;;;2.95;2.75;;;6.60;1.00;;;;;;6218679;23;20702;-84
2023/01/10 03:11:43;;;;;;;4.30;3.00;;;6.60;1.00;;;;;;6218268;23;20191;-84
2023/01/10 03:14:15;;;;;;;3.65;2.83;;;6.70;1.00;;;;;;6218029;23;20206;-85
2023/01/10 03:16:46;;;;;;;5.18;3.67;;;6.70;1.00;;;;;;6218427;23;20182;-85
2023/01/10 03:19:17;;;;;;;4.68;3.58;;;6.60;1.00;;;;;;6217930;23;20199;-84
2023/01/10 03:21:44;;;;;;;4.15;3.75;;;6.60;1.00;;;;;;6219406;23;20242;-84
2023/01/10 03:24:17;;;;;;;5.63;3.55;;;6.50;1.00;;;;;;6221895;23;20227;-84
2023/01/10 03:26:49;;;;;;;7.10;4.05;;;6.50;1.00;;;;;;6221151;23;20166;-84
2023/01/10 03:29:23;;;;;;;4.82;3.75;;;6.60;1.00;;;;;;6220251;23;20203;-84
2023/01/10 03:31:55;;;;;;;5.90;3.55;;;6.60;1.00;;;;;;6219736;23;20160;-84
2023/01/10 03:34:24;;;;;;;7.78;4.22;;;6.50;1.00;;;;;;6220187;23;20183;-85
2023/01/10 03:36:59;;;;;;;5.47;4.20;;;6.60;1.00;;;;;;6220495;23;20182;-85
2023/01/10 03:39:34;;;;;;;6.32;5.70;;;6.60;1.00;;;;;;6222822;23;20233;-84
2023/01/10 03:42:09;;;;;;;4.85;4.25;;;6.60;1.00;;;;;;6221094;23;20238;-84
2023/01/10 03:44:43;;;;;;;6.05;3.70;;;6.50;1.00;;;;;;6220387;23;20170;-84
2023/01/10 03:47:17;;;;;;;5.05;3.45;;;6.50;17.00;;;;;;6224852;23;20481;-84
2023/01/10 03:49:49;;;;;;;7.03;4.28;;;6.50;23.90;;;;;;6220317;23;20199;-84
2023/01/10 03:52:18;;;;;;;9.85;4.43;;;6.40;32.10;;;;;;6219718;23;20251;-85
2023/01/10 03:54:46;;;;;;;7.90;4.43;;;6.60;44.00;;;;;;6219534;23;20196;-85
2023/01/10 03:57:18;;;;;;;5.22;4.72;;;6.50;41.80;;;;;;6219849;23;20262;-84
2023/01/10 03:59:45;;;;;;;10.63;5.50;;;6.50;99.90;;;;;;6220278;23;20227;-83
2023/01/10 04:02:12;;;;;;;4.20;3.78;;;6.50;50.60;;;;;;6230644;23;20222;-84
2023/01/10 04:04:39;;;;;;;10.73;7.25;;;6.50;66.20;;;;;;6219496;23;20178;-84
2023/01/10 04:07:07;;;;;;;5.18;3.90;;;6.50;91.20;;;;;;6219801;23;20731;-85
2023/01/10 04:09:34;;;;;;;5.88;4.50;;;6.50;99.90;;;;;;6219397;23;20277;-84
2023/01/10 04:12:01;;;;;;;8.20;5.38;;;6.50;99.90;;;;;;6222018;23;20408;-85
2023/01/10 04:14:31;;;;;;;9.20;5.15;;;6.40;99.90;;;;;;6222598;23;20195;-85
2023/01/10 04:16:58;;;;;;;5.45;4.95;;;6.40;99.90;;;;;;6227107;23;20211;-84
2023/01/10 04:19:25;;;;;;;8.60;5.60;;;6.70;99.90;;;;;;6239461;23;20229;-84
2023/01/10 04:21:52;;;;;;;6.82;5.63;;;6.40;99.90;;;;;;6227674;23;20180;-84
2023/01/10 04:24:20;;;;;;;5.50;4.70;;;6.40;99.90;;;;;;6221469;23;20182;-84
2023/01/10 04:26:47;;;;;;;10.82;4.60;;;6.40;99.90;;;;;;6221608;23;20176;-85
2023/01/10 04:29:14;;;;;;;12.38;6.55;;;6.50;99.90;;;;;;6219353;23;20203;-84
2023/01/10 04:31:41;;;;;;;8.82;5.88;;;6.50;99.90;;;;;;6221708;23;20181;-84
2023/01/10 04:34:08;;;;;;;10.57;6.68;;;6.50;99.90;;;;;;6229288;23;20202;-85
2023/01/10 04:36:36;;;;;;;16.63;5.40;;;6.50;99.90;;;;;;6230938;23;20183;-84
2023/01/10 04:39:03;;;;;;;12.18;6.40;;;6.50;99.90;;;;;;6231670;23;20199;-85
2023/01/10 04:41:31;;;;;;;10.77;5.88;;;6.50;99.90;;;;;;6221449;23;20695;-86
2023/01/10 04:43:58;;;;;;;9.43;6.57;;;6.50;99.90;;;;;;6222993;23;20176;-85
2023/01/10 04:46:25;;;;;;;14.07;5.88;;;6.50;99.90;;;;;;6226573;23;20547;-86
2023/01/10 04:48:52;;;;;;;12.45;6.07;;;6.50;99.90;;;;;;6227634;23;20238;-84
2023/01/10 04:51:19;;;;;;;11.48;6.38;;;6.40;99.90;;;;;;6227923;23;20175;-85
2023/01/10 04:53:45;;;;;;;10.88;6.45;;;6.40;99.90;;;;;;6226804;23;20179;-85
2023/01/10 04:56:17;;;;;;;11.18;5.82;;;6.40;99.90;;;;;;6221793;23;20199;-84
2023/01/10 04:58:46;;;;;;;11.90;6.47;;;6.40;99.90;;;;;;6219258;23;20198;-85
2023/01/10 05:01:15;;;;;;;7.28;5.85;;;6.40;99.90;;;;;;6219585;23;20183;-85
2023/01/10 05:03:42;;;;;;;8.85;6.60;;;6.40;99.90;;;;;;6220328;23;20175;-85
2023/01/10 05:06:09;;;;;;;10.30;5.97;;;6.40;99.90;;;;;;6227408;23;20564;-84
2023/01/10 05:08:36;;;;;;;13.15;6.70;;;6.40;99.90;;;;;;6223545;23;20278;-85
2023/01/10 05:11:03;;;;;;;9.18;5.93;;;6.40;99.90;;;;;;6222300;23;20179;-85
2023/01/10 05:13:30;;;;;;;10.77;6.60;;;6.40;99.90;;;;;;6220028;23;20258;-85
2023/01/10 05:15:58;;;;;;;10.50;6.30;;;6.40;99.90;;;;;;6219394;23;20270;-85
2023/01/10 05:18:26;;;;;;;12.35;8.00;;;6.40;99.90;;;;;;6221645;23;20199;-85
2023/01/10 05:20:53;;;;;;;13.38;6.55;;;6.50;99.90;;;;;;6220193;23;20624;-86
2023/01/10 05:23:20;;;;;;;14.13;6.10;;;6.10;99.90;;;;;;6219107;23;20175;-85
2023/01/10 05:25:46;;;;;;;8.68;6.60;;;6.40;99.90;;;;;;6220465;23;20203;-85
2023/01/10 05:28:13;;;;;;;10.15;6.18;;;6.40;99.90;;;;;;6218538;23;20207;-84
2023/01/10 05:30:40;;;;;;;12.65;7.45;;;6.50;99.90;;;;;;6219503;23;20175;-84
2023/01/10 05:33:08;;;;;;;9.25;6.28;;;6.50;99.90;;;;;;6221696;23;20199;-84
2023/01/10 05:35:35;;;;;;;9.50;6.35;;;6.50;99.90;;;;;;6235508;23;20226;-84
2023/01/10 05:38:02;;;;;;;12.93;6.72;;;6.60;99.90;;;;;;6228642;23;20196;-85
2023/01/10 05:40:29;;;;;;;11.27;6.25;;;6.60;99.90;;;;;;6222333;23;20263;-85
2023/01/10 05:42:56;;;;;;;11.80;5.75;;;6.60;99.90;;;;;;6231554;23;20254;-85
2023/01/10 05:45:23;;;;;;;11.15;6.05;;;6.60;99.90;;;;;;6243513;23;20179;-84
2023/01/10 05:47:49;;;;;;;13.55;6.35;;;7.00;99.90;;;;;;6235742;23;20234;-85
2023/01/10 05:50:18;;;;;;;11.77;6.32;;;6.70;99.90;;;;;;6231466;23;20210;-84
2023/01/10 05:52:45;;;;;;;14.50;6.10;;;6.60;99.90;;;;;;6233662;23;20179;-85
2023/01/10 05:55:11;;;;;;;12.02;5.95;;;6.60;99.90;;;;;;6238376;23;20222;-84
2023/01/10 05:57:38;;;;;;;13.00;5.90;;;6.70;99.90;;;;;;6235569;23;20206;-83
2023/01/10 06:00:06;;;;;;;12.73;7.53;;;6.70;99.90;;;;;;6236639;23;20202;-84
2023/01/10 06:02:33;;;;;;;13.10;7.15;;;6.70;99.90;;;;;;6232796;23;20203;-84
2023/01/10 06:05:00;;;;;;;11.60;5.75;;;6.70;99.90;;;;;;6233012;23;20227;-84
2023/01/10 06:07:28;;;;;;;13.55;7.15;;;6.70;99.90;;;;;;6234048;23;20183;-84
2023/01/10 06:09:55;;;;;;;12.60;6.90;;;6.70;99.90;;;;;;6234832;23;20207;-84
2023/01/10 06:12:21;;;;;;;14.45;6.82;;;6.70;99.90;;;;;;6234434;23;20648;-85
2023/01/10 06:14:48;;;;;;;13.57;7.18;;;6.70;99.90;;;;;;6234436;23;20179;-85
2023/01/10 06:17:15;;;;;;;14.25;6.78;;;6.80;99.90;;;;;;6235678;23;20179;-84
2023/01/10 06:19:42;;;;;;;13.63;7.25;;;6.90;99.90;;;;;;6223409;23;20199;-85
2023/01/10 06:22:09;;;;;;;10.07;6.50;;;7.00;99.90;;;;;;6221953;23;20179;-84
2023/01/10 06:24:37;;;;;;;8.00;6.10;;;7.00;86.10;;;;;;6222935;23;20175;-85
2023/01/10 06:27:04;;;;;;;13.85;6.20;;;6.80;90.00;;;;;;6219757;23;20504;-84
2023/01/10 06:29:31;;;;;;;9.85;6.40;;;6.80;76.90;;;;;;6219305;23;20231;-85
2023/01/10 06:31:59;;;;;;;10.07;6.18;;;6.90;87.40;;;;;;6219604;23;20199;-85
2023/01/10 06:34:25;;;;;;;9.85;6.60;;;6.90;60.50;;;;;;6220039;23;20175;-85
2023/01/10 06:36:52;;;;;;;9.18;6.43;;;6.90;50.40;;;;;;6218832;23;20195;-85
2023/01/10 06:39:19;;;;;;;13.82;6.32;;;6.90;53.50;;;;;;6218741;23;20195;-86
2023/01/10 06:41:47;;;;;;;14.40;8.02;;;6.80;33.30;;;;;;6218728;23;20199;-85
2023/01/10 06:44:14;;;;;;;12.50;7.88;;;6.80;28.50;;;;;;6219227;23;20511;-85
2023/01/10 06:46:41;;;;;;;15.45;7.90;;;6.80;30.10;;;;;;6218545;23;20171;-84
2023/01/10 06:49:07;;;;;;;10.90;6.72;;;6.80;43.10;;;;;;6220260;23;20199;-85
2023/01/10 06:51:34;;;;;;;14.57;7.00;;;6.80;40.30;;;;;;6220353;23;20187;-85
2023/01/10 06:54:01;;;;;;;8.88;6.13;;;6.70;38.40;;;;;;6222595;23;20650;-84
2023/01/10 06:56:28;;;;;;;8.50;7.50;;;7.20;42.30;;;;;;6226448;23;20215;-85
2023/01/10 06:58:56;;;;;;;11.63;6.75;;;6.70;62.00;;;;;;6232128;23;20234;-83
2023/01/10 07:01:23;;;;;;;13.80;7.80;;;6.70;91.10;;;;;;6229166;23;20254;-84
2023/01/10 07:03:49;;;;;;;13.02;7.55;;;6.70;68.10;;;;;;6226746;23;20203;-85
2023/01/10 07:06:16;;;;;;;16.17;7.05;;;6.70;85.70;;;;;;6219291;23;20202;-85
2023/01/10 07:08:45;;;;;;;11.23;7.13;;;6.70;90.10;;;;;;6218318;23;20252;-85
2023/01/10 07:11:13;;;;;;;14.65;8.38;;;6.70;95.20;;;;;;6218296;23;20650;-85
2023/01/10 07:13:40;;;;;;;13.77;6.75;;;6.90;99.90;;;;;;6218203;23;20227;-84
2023/01/10 07:16:10;;;;;;;15.90;7.88;;;6.70;93.20;;;;;;6218929;23;20195;-85
2023/01/10 07:18:38;;;;;;;17.77;7.22;;;6.60;87.90;;;;;;6218567;23;20274;-84
2023/01/10 07:21:05;;;;;;;16.27;7.43;;;6.60;75.30;;;;;;6218835;23;20258;-84
2023/01/10 07:23:32;;;;;;;11.82;7.15;;;6.60;79.80;;;;;;6218832;23;20254;-84
2023/01/10 07:26:03;;;;;;;17.80;8.68;;;6.60;92.10;;;;;;6220202;23;20258;-85
2023/01/10 07:28:30;;;;;;;17.70;7.32;;;6.50;94.50;;;;;;6237132;23;20207;-84
2023/01/10 07:30:59;;;;;;;12.65;7.38;;;6.50;99.90;;;;;;6238966;23;20163;-84
2023/01/10 07:33:27;;;;;;;12.43;6.85;;;6.60;99.90;;;;;;6224676;23;20178;-84
2023/01/10 07:35:54;;;;;;;10.82;6.90;;;6.60;99.90;;;;;;6221150;23;20198;-85
2023/01/10 07:38:21;;;;;;;16.40;8.38;;;6.70;99.90;;;;;;6221787;23;20230;-84
2023/01/10 07:40:48;;;;;;;15.05;9.15;;;6.50;99.90;;;;;;6220015;23;20229;-85
2023/01/10 07:43:14;;;;;;;18.88;8.82;;;6.50;97.50;;;;;;6217530;23;20179;-85
2023/01/10 07:45:41;;;;;;;14.52;8.18;;;6.60;99.30;;;;;;6221892;23;20210;-84
2023/01/10 07:48:09;;;;;;;10.65;7.13;;;6.60;94.20;;;;;;6232118;23;20223;-83
2023/01/10 07:50:38;;;;;;;13.40;7.85;;;6.60;99.90;;;;;;6241197;23;20182;-84
2023/01/10 07:53:06;;;;;;;18.27;8.50;;;6.60;73.30;;;;;;6235349;23;20175;-83
2023/01/10 07:55:35;;;;;;;16.13;8.63;;;6.20;99.90;;;;;;6234100;23;20209;-83
2023/01/10 07:58:02;;;;;;;14.07;7.95;;;6.80;99.90;;;;;;6229627;23;20252;-85
2023/01/10 08:00:28;;;;;;;18.20;8.90;;;6.60;67.80;;;;;;6229049;23;20257;-83
2023/01/10 08:02:56;;;;;;;14.85;8.60;;;6.70;73.30;;;;;;6231798;23;20179;-83
2023/01/10 08:05:24;;;;;;;13.02;8.35;;;6.70;42.50;;;;;;6228632;23;20176;-83
2023/01/10 08:07:54;;;;;;;11.43;8.35;;;6.60;99.90;;;;;;6229652;23;20176;-83
2023/01/10 08:10:20;;;;;;;14.18;7.45;;;6.70;5.50;;;;;;6231715;23;20604;-83
2023/01/10 08:12:49;;;;;;;13.80;8.80;;;6.70;99.90;;;;;;6232400;23;20509;-83
2023/01/10 08:15:16;;;;;;;14.23;8.05;;;6.70;23.20;;;;;;6232286;23;20179;-84
2023/01/10 08:17:43;;;;;;;13.15;7.72;;;7.00;55.70;;;;;;6230158;23;20175;-83
2023/01/10 08:20:11;;;;;;;17.15;8.35;;;6.90;1.00;;;;;;6230550;23;20640;-84
2023/01/10 08:22:38;;;;;;;13.15;8.05;;;6.90;1.00;;;;;;6233863;23;20207;-84
2023/01/10 08:25:07;;;;;;;18.88;10.20;;;6.70;1.00;;;;;;6232627;23;20203;-84
2023/01/10 08:27:33;;;;;;;12.10;7.18;;;6.60;76.70;;;;;;6232629;23;20176;-84
2023/01/10 08:30:00;;;;;;;10.43;8.25;;;6.90;1.00;;;;;;6229870;23;20194;-84
2023/01/10 08:32:27;;;;;;;12.38;8.02;;;6.80;1.00;;;;;;6228738;23;20175;-84
2023/01/10 08:34:54;;;;;;;17.23;8.20;;;6.90;1.00;;;;;;6231490;23;20199;-83
2023/01/10 08:37:21;;;;;;;9.45;7.78;;;7.00;1.00;;;;;;6245014;22;20237;-82
2023/01/10 08:39:47;;;;;;;13.30;7.55;;;6.80;23.60;;;;;;6245312;22;20207;-82
2023/01/10 08:42:17;;;;;;;13.27;7.57;;;6.90;1.00;;;;;;6230889;23;20218;-84
2023/01/10 08:44:44;;;;;;;12.77;7.40;;;6.90;1.00;;;;;;6228649;23;20254;-83
2023/01/10 08:47:11;;;;;;;15.05;7.10;;;6.80;1.00;;;;;;6228145;23;20172;-83
2023/01/10 08:49:38;;;;;;;11.02;7.40;;;6.80;1.00;;;;;;6228163;23;20208;-83
2023/01/10 08:52:05;;;;;;;11.82;7.47;;;7.00;1.00;;;;;;6230503;23;20186;-83
2023/01/10 08:54:32;;;;;;;10.50;7.53;;;7.10;1.00;;;;;;6229376;23;20182;-83
2023/01/10 08:56:59;;;;;;;10.38;7.57;;;7.00;1.00;;;;;;6229667;23;20195;-84
2023/01/10 08:59:29;;;;;;;14.90;7.93;;;7.10;1.00;;;;;;6229925;23;20219;-84
2023/01/10 09:01:57;;;;;;;11.03;7.73;;;7.20;1.00;;;;;;6228511;23;20730;-84
2023/01/10 09:04:25;;;;;;;15.43;8.27;;;7.10;1.00;;;;;;6227205;23;20406;-84
2023/01/10 09:06:52;;;;;;;9.73;7.55;;;7.10;1.00;;;;;;6220211;23;20577;-84
2023/01/10 09:09:18;;;;;;;11.30;7.63;;;7.30;1.00;;;;;;6219051;23;20199;-84
2023/01/10 09:11:46;;;;;;;13.00;7.53;;;7.00;1.00;;;;;;6219689;23;20259;-84
2023/01/10 09:14:13;;;;;;;13.60;7.53;;;7.10;1.00;;;;;;6221057;23;20231;-84
2023/01/10 09:16:41;;;;;;;21.48;8.18;;;7.00;1.00;;;;;;6234109;22;20213;-83
2023/01/10 09:19:08;;;;;;;12.30;7.35;;;7.20;1.00;;;;;;6226208;23;20251;-84
2023/01/10 09:21:35;;;;;;;18.60;7.55;;;7.40;1.00;;;;;;6230143;23;20265;-84
2023/01/10 09:24:01;;;;;;;13.27;7.43;;;7.30;1.00;;;;;;6234420;23;20208;-84
2023/01/10 09:26:28;;;;;;;13.40;7.22;;;7.40;1.00;;;;;;6229861;23;20171;-84
2023/01/10 09:28:55;;;;;;;13.57;7.43;;;7.40;1.00;;;;;;6232193;23;20420;-86
2023/01/10 09:31:22;;;;;;;11.75;6.65;;;7.50;1.00;;;;;;6235237;23;20415;-87
2023/01/10 09:33:50;;;;;;;10.93;7.22;;;7.40;1.00;;;;;;6221322;23;20211;-85
2023/01/10 09:36:17;;;;;;;13.40;7.75;;;7.40;1.00;;;;;;6223728;23;20197;-83
2023/01/10 09:38:44;;;;;;;8.65;6.40;;;7.30;1.00;;;;;;6223082;23;20234;-84
2023/01/10 09:41:29;;;;;;;10.93;7.05;;;7.40;1.00;;;;;;6222375;23;20167;-84
2023/01/10 09:44:04;;;;;;;10.15;6.65;;;7.50;1.00;;;;;;6219936;23;20660;-84
2023/01/10 09:46:43;;;;;;;10.60;6.43;;;7.40;1.00;;;;;;6228223;23;20187;-84
2023/01/10 09:49:19;;;;;;;12.88;7.43;;;7.40;1.00;;;;;;6231570;23;20442;-83
2023/01/10 09:51:49;;;;;;;8.40;6.55;;;7.50;1.00;;;;;;6229717;23;20211;-84
2023/01/10 09:54:22;;;;;;;11.27;7.75;;;7.50;1.00;;;;;;6222288;23;20195;-85
2023/01/10 09:56:50;;;;;;;13.55;6.05;;;7.50;1.00;;;;;;6220301;23;20215;-84
2023/01/10 09:59:20;;;;;;;13.27;6.55;;;7.50;1.00;;;;;;6222134;23;20237;-84
2023/01/10 10:01:50;;;;;;;13.00;6.78;;;7.50;1.00;;;;;;6220880;23;20254;-84
2023/01/10 10:04:23;;;;;;;15.43;7.63;;;7.30;1.00;;;;;;6220702;23;20214;-84
2023/01/10 10:06:51;;;;;;;14.80;7.57;;;7.20;1.00;;;;;;6227161;23;20167;-84
2023/01/10 10:09:23;;;;;;;14.45;7.30;;;7.20;1.00;;;;;;6232847;23;20219;-85
2023/01/10 10:12:01;;;;;;;11.27;6.75;;;7.20;1.00;;;;;;6230975;23;20201;-85
2023/01/10 10:14:47;;;;;;;16.73;7.20;;;7.10;1.00;;;;;;6234813;23;20211;-84
2023/01/10 10:17:31;;;;;;;13.07;8.25;;;7.20;1.00;;;;;;6234412;23;20210;-84
2023/01/10 10:20:15;;;;;;;19.58;8.07;;;7.20;1.00;;;;;;6233895;23;20199;-83
2023/01/10 10:22:51;;;;;;;13.57;7.00;;;7.40;1.00;;;;;;6229600;23;20684;-83
2023/01/10 10:25:34;;;;;;;8.48;7.03;;;7.40;1.00;;;;;;6220166;23;20170;-84
2023/01/10 10:28:15;;;;;;;13.67;6.83;;;7.40;1.00;;;;;;6234376;23;20243;-83
2023/01/10 10:30:52;;;;;;;11.80;7.40;;;7.50;1.00;;;;;;6242422;22;20375;-82
2023/01/10 10:33:36;;;;;;;13.02;6.50;;;7.50;1.00;;;;;;6242459;22;20354;-82
2023/01/10 10:36:11;;;;;;;12.67;6.33;;;7.60;1.00;;;;;;6222479;23;20171;-84
2023/01/10 10:38:42;;;;;;;8.70;6.67;;;7.50;1.00;;;;;;6220487;23;20517;-84
2023/01/10 10:41:15;;;;;;;10.38;5.80;;;7.70;1.00;;;;;;6222419;23;20437;-83
2023/01/10 10:43:45;;;;;;;11.40;6.37;;;7.70;1.00;;;;;;6221980;23;20243;-84
2023/01/10 10:46:14;;;;;;;12.85;7.88;;;7.70;1.00;;;;;;6221491;23;20414;-84
2023/01/10 10:48:46;;;;;;;19.10;7.60;;;7.80;1.00;;;;;;6223815;23;20234;-84
2023/01/10 10:51:23;;;;;;;13.57;6.17;;;7.80;1.00;;;;;;6227853;23;20548;-84
2023/01/10 10:53:50;;;;;;;19.87;13.30;;;7.70;99.90;;;;;;6224155;23;20393;-84
2023/01/10 10:56:21;;;;;;;11.90;6.13;;;7.70;99.90;;;;;;6228225;23;20478;-85
2023/01/10 10:58:52;;;;;;;9.03;5.90;;;7.70;99.90;;;;;;6222270;23;20663;-84
2023/01/10 11:01:19;;;;;;;18.67;7.45;;;7.70;99.90;;;;;;6226168;23;20379;-85
2023/01/10 11:03:49;;;;;;;11.80;5.40;;;7.80;99.90;;;;;;6225244;23;20214;-85
2023/01/10 11:06:19;;;;;;;14.10;6.60;;;7.80;99.90;;;;;;6221346;23;20889;-84
2023/01/10 11:08:49;;;;;;;6.50;5.20;;;7.80;99.90;;;;;;6220380;23;20462;-85
2023/01/10 11:11:21;;;;;;;13.30;7.63;;;7.80;99.90;;;;;;6220451;23;20390;-86
2023/01/10 11:13:53;;;;;;;15.03;6.90;;;7.70;99.90;;;;;;6220236;23;20462;-85
2023/01/10 11:16:26;;;;;;;10.18;6.22;;;7.80;99.90;;;;;;6219459;23;20418;-85
2023/01/10 11:19:17;;;;;;;13.50;7.25;;;7.80;99.90;;;;;;6219720;23;20199;-85
2023/01/10 11:21:50;;;;;;;7.43;6.07;;;7.90;99.90;;;;;;6219889;23;20163;-84
2023/01/10 11:24:22;;;;;;;9.50;6.20;;;8.10;99.90;;;;;;6219950;23;20755;-85
2023/01/10 11:29:38;;;;;;;12.30;7.17;;;7.90;99.90;;;;;;6220384;23;20213;-84
2023/01/10 11:32:13;;;;;;;16.20;6.83;;;7.90;99.90;;;;;;6221720;23;20386;-86
2023/01/10 11:34:41;;;;;;;10.20;7.90;;;7.80;99.90;;;;;;6222526;23;20452;-85
2023/01/10 11:37:20;;;;;;;12.13;6.77;;;7.80;99.90;;;;;;6221507;23;20467;-85
2023/01/10 11:39:47;;;;;;;17.90;7.60;;;7.90;99.90;;;;;;6227842;23;20426;-85
2023/01/10 11:42:30;;;;;;;10.03;6.03;;;8.00;99.90;;;;;;6229172;23;20413;-84
2023/01/10 11:45:24;;;;;;;7.97;5.47;;;8.00;99.90;;;;;;6223481;23;20437;-85
2023/01/10 11:47:54;;;;;;;8.37;6.03;;;8.00;99.90;;;;;;6226373;23;20383;-84
2023/01/10 11:50:23;;;;;;;8.83;5.90;;;8.00;65.10;;;;;;6224931;23;20387;-84
2023/01/10 11:52:52;;;;;;;5.23;4.73;;;8.10;19.10;;;;;;6224623;23;20505;-85
2023/01/10 11:55:23;;;;;;;11.87;4.90;;;7.80;1.00;;;;;;6223510;23;20736;-85
2023/01/10 11:58:00;;;;;;;12.20;5.50;;;7.70;99.90;;;;;;6223608;23;20412;-85
2023/01/10 12:00:40;;;;;;;10.93;5.45;;;7.90;99.90;;;;;;6224211;23;20524;-84
2023/01/10 12:03:27;;;;;;;10.33;6.20;;;8.00;1.00;;;;;;6232082;23;20163;-84
2023/01/10 12:05:56;;;;;;;19.50;6.35;;;8.10;1.00;;;;;;6234618;23;20382;-85
2023/01/10 12:12:21;;;;;;;13.90;7.10;;;8.10;1.00;;;;;;6023620;23;20416;-85
2023/01/10 12:14:48;;;;;;;11.13;5.18;;;8.60;1.00;;;;;;6066253;23;20396;-84
2023/01/10 12:17:22;;;;;;;8.27;5.57;;;8.20;1.00;;;;;;6240857;23;20183;-85
2023/01/10 12:19:52;;;;;;;12.30;4.20;;;8.20;1.00;;;;;;6242944;23;20423;-84
2023/01/10 12:22:20;;;;;;;9.63;4.40;;;8.30;1.00;;;;;;6241243;23;20384;-84
2023/01/10 12:24:48;;;;;;;12.50;4.57;;;8.10;1.00;;;;;;6242509;23;20393;-84
2023/01/10 12:27:18;;;;;;;7.70;4.53;;;8.10;1.00;;;;;;6241666;23;20434;-83
2023/01/10 12:29:53;;;;;;;8.23;4.87;;;7.60;1.00;;;;;;6241935;23;20434;-83
2023/01/10 12:32:22;;;;;;;17.57;4.90;;;8.20;1.00;;;;;;6242255;23;20377;-84
2023/01/10 12:34:56;;;;;;;17.13;4.80;;;8.20;1.00;;;;;;6242359;23;20418;-83
2023/01/10 12:37:30;;;;;;;7.83;5.03;;;8.20;1.00;;;;;;6245524;22;20392;-83
2023/01/10 12:40:04;;;;;;;13.20;5.57;;;8.10;1.00;;;;;;6245475;22;20406;-82
2023/01/10 12:45:33;;;;;;;12.60;4.37;;;8.40;1.00;;;;;;6242986;23;20356;-84
2023/01/10 12:48:06;;;;;;;9.23;4.17;;;8.20;99.90;;;;;;6244177;22;20421;-82
2023/01/10 12:50:39;;;;;;;11.20;4.53;;;8.40;99.90;;;;;;6243747;23;20382;-81
2023/01/10 12:53:13;;;;;;;9.73;4.20;;;8.50;99.90;;;;;;6243412;22;20393;-83
2023/01/10 12:55:42;;;;;;;10.80;4.50;;;8.50;99.90;;;;;;6244138;22;20385;-83
2023/01/10 12:58:20;;;;;;;8.57;4.67;;;8.50;99.90;;;;;;6244896;22;20385;-85
2023/01/10 13:00:52;;;;;;;5.73;3.70;;;8.40;99.90;;;;;;6244436;22;20462;-84
2023/01/10 13:03:21;;;;;;;10.33;4.20;;;8.60;99.90;;;;;;6243291;23;20403;-86
2023/01/10 13:05:50;;;;;;;5.53;3.27;;;8.40;99.90;;;;;;6242423;23;20381;-85
2023/01/10 13:08:21;;;;;;;7.83;3.43;;;8.60;99.90;;;;;;6234366;23;20534;-85
2023/01/10 13:10:50;;;;;;;7.13;3.13;;;8.70;99.90;;;;;;6228840;23;20418;-85
2023/01/10 13:13:27;;;;;;;8.23;3.73;;;8.60;1.00;;;;;;6227342;23;20474;-86
2023/01/10 13:15:58;;;;;;;4.77;3.50;;;8.50;1.00;;;;;;6226557;23;20395;-86
2023/01/10 13:18:27;;;;;;;8.33;3.27;;;8.40;5.00;;;;;;6228953;23;20422;-84
2023/01/10 13:21:07;;;;;;;6.47;3.10;;;8.50;94.20;;;;;;6226908;23;20379;-85
2023/01/10 13:23:39;;;;;;;13.93;3.90;;;8.50;69.50;;;;;;6228081;23;20398;-79